Serian, Malaysia
Current Conditions -  °F | °C
As of 1:00 PM on Saturday 20 Dec 2014 (Local Time) from WBGG Reporting Station
Broken Clouds Broken Clouds  
Wind Chill: 88°   Ceiling: 30000
Heat Index: 98°   Visibility: 6mi
Dew Point: 75°   Wind: 3mph
Humidity: 66%   Direction: 230°SW
Pressure: 29.8"   Gusts: NA
Location:  1.17°N, 110.56°E
Report Text: WBGG 200500Z 23003KT 9999 SCT018 SCT150 BKN300 31/24 Q1009 NOSIG
Loading
Personal Weather Stations






























Interactive Weather Map New forecast layout! Learn more

10-Day Weather Forecast

Advertisements
Track Severe Weather on mobile